KPDT/PDT METAR and TAF weather

Enter ICAO airport designator
Station Type Date Time Source
KPDT METAR 2019/10/23 19:53 UTC NOAA

KPDT 231953Z 00000KT 10SM CLR 13/00 A3045 RMK AO2 SLP311 T01330000


Station Type Date Time Source
KPDT Decoded METAR 2019/10/23 19:53 UTC NOAA

PENDLETON MUNICIPAL AIRPORT, OR, United States (KPDT) 45-70N 118-83W 458M
Oct 23, 2019 - 03:53 PM EDT / 2019.10.23 1953 UTC
Wind: Calm:0
Visibility: 10 mile(s):0
Sky conditions: clear
Temperature: 55.9 F (13.3 C)
Dew Point: 32.0 F (0.0 C)
Relative Humidity: 40%
Pressure (altimeter): 30.45 in. Hg (1031 hPa)
ob: KPDT 231953Z 00000KT 10SM CLR 13/00 A3045 RMK AO2 SLP311 T01330000
cycle: 20

Station Type Date Time Source
KPDT TAF 2019/10/23 18:22 UTC NOAA

TAF KPDT 231720Z 2318/2418 16005KT P6SM SKC
FM232100 VRB05KT P6SM FEW250
FM240400 13005KT P6SM FEW250
FM241200 14005KT P6SM FEW120 FEW250

Example: see airport list